createdAt,value
2018-02-27T00:00:18.871Z,1.59
2018-02-27T00:01:18.924Z,1.52
2018-02-27T00:02:18.598Z,1.53
2018-02-27T00:03:18.899Z,1.49
2018-02-27T00:04:18.911Z,1.55
2018-02-27T00:05:18.626Z,1.58
2018-02-27T00:06:18.688Z,1.49
2018-02-27T00:07:18.643Z,1.48
2018-02-27T00:08:18.934Z,1.5
2018-02-27T00:09:18.974Z,1.5
2018-02-27T00:10:18.659Z,1.49
2018-02-27T00:11:18.771Z,1.37
2018-02-27T00:12:18.675Z,1.37
2018-02-27T00:13:18.406Z,1.41
2018-02-27T00:14:19.018Z,1.37
2018-02-27T00:15:18.414Z,1.41
2018-02-27T00:16:18.990Z,1.37
2018-02-27T00:17:18.714Z,1.42
2018-02-27T00:18:19.002Z,1.38
2018-02-27T00:19:18.725Z,1.37
2018-02-27T00:20:19.013Z,1.37
2018-02-27T00:21:18.818Z,1.41
2018-02-27T00:22:18.464Z,1.34
2018-02-27T00:23:18.474Z,1.38
2018-02-27T00:24:18.764Z,1.42
2018-02-27T00:25:19.053Z,1.31
2018-02-27T00:26:19.108Z,1.41
2018-02-27T00:27:19.071Z,1.37
2018-02-27T00:28:18.798Z,1.26
2018-02-27T00:29:19.082Z,1.26
2018-02-27T00:30:18.812Z,1.37
2018-02-27T00:31:19.151Z,1.31
2018-02-27T00:32:18.819Z,1.34
2018-02-27T00:33:19.115Z,1.26
2018-02-27T00:34:18.563Z,1.24
2018-02-27T00:35:19.130Z,1.3
2018-02-27T00:36:18.902Z,1.28
2018-02-27T00:37:18.856Z,1.3
2018-02-27T00:38:18.866Z,1.28
2018-02-27T00:39:19.159Z,1.26
2018-02-27T00:40:18.602Z,1.31
2018-02-27T00:41:18.897Z,1.24
2018-02-27T00:42:19.182Z,1.22
2018-02-27T00:43:19.203Z,1.28
2018-02-27T00:44:19.197Z,1.28
2018-02-27T00:45:19.201Z,1.3
2018-02-27T00:46:18.656Z,1.26
2018-02-27T00:47:19.218Z,1.19
2018-02-27T00:48:18.957Z,1.24
2018-02-27T00:49:19.231Z,1.2
2018-02-27T00:50:18.671Z,1.22
2018-02-27T00:51:18.678Z,1.2
2018-02-27T00:52:19.261Z,1.2
2018-02-27T00:53:18.977Z,1.22
2018-02-27T00:54:19.272Z,1.17
2018-02-27T00:55:19.275Z,1.16
2018-02-27T00:56:19.003Z,1.16
2018-02-27T00:57:19.004Z,1.17
2018-02-27T00:58:19.014Z,1.16
2018-02-27T00:59:19.314Z,1.19
2018-02-27T01:00:19.026Z,1.16
2018-02-27T01:01:19.036Z,1.12
2018-02-27T01:02:18.766Z,1.08
2018-02-27T01:03:19.060Z,1.06
2018-02-27T01:04:19.059Z,1.1
2018-02-27T01:05:19.067Z,1.14
2018-02-27T01:06:19.409Z,1.02
2018-02-27T01:07:19.364Z,1.14
2018-02-27T01:08:19.090Z,1.06
2018-02-27T01:09:19.143Z,1.13
2018-02-27T01:10:19.099Z,1.08
2018-02-27T01:11:19.111Z,1.12
2018-02-27T01:12:19.404Z,1.08
2018-02-27T01:13:19.123Z,1.08
2018-02-27T01:14:19.136Z,1.08
2018-02-27T01:15:19.425Z,1.13
2018-02-27T01:16:19.200Z,1.05
2018-02-27T01:17:18.869Z,1.06
2018-02-27T01:18:19.158Z,1.04
2018-02-27T01:19:19.172Z,1.06
2018-02-27T01:20:19.178Z,1.05
2018-02-27T01:21:19.517Z,1.05
2018-02-27T01:22:19.200Z,1.02
2018-02-27T01:23:19.480Z,1.05
2018-02-27T01:24:19.217Z,1.08
2018-02-27T01:25:19.220Z,1.1
2018-02-27T01:26:19.550Z,1.05
2018-02-27T01:27:19.509Z,1.01
2018-02-27T01:28:19.519Z,1.04
2018-02-27T01:29:19.520Z,1.01
2018-02-27T01:30:19.256Z,0.94
2018-02-27T01:31:19.306Z,1.05
2018-02-27T01:32:19.545Z,0.95
2018-02-27T01:33:19.272Z,1.01
2018-02-27T01:34:19.285Z,1.05
2018-02-27T01:35:19.567Z,1.02
2018-02-27T01:36:19.344Z,1.02
2018-02-27T01:37:19.577Z,0.91
2018-02-27T01:38:19.313Z,0.87
2018-02-27T01:39:19.315Z,0.91
2018-02-27T01:40:19.605Z,1.05
2018-02-27T01:41:19.380Z,0.88
2018-02-27T01:42:19.332Z,0.99
2018-02-27T01:43:19.626Z,0.88
2018-02-27T01:44:19.068Z,1.04
2018-02-27T01:45:19.638Z,1.02
2018-02-27T01:46:19.130Z,0.95
2018-02-27T01:47:19.656Z,1.02
2018-02-27T01:48:19.390Z,0.98
2018-02-27T01:49:19.384Z,0.94
2018-02-27T01:50:19.389Z,0.95
2018-02-27T01:51:19.686Z,0.87
2018-02-27T01:52:19.124Z,0.91
2018-02-27T01:53:19.695Z,0.88
2018-02-27T01:54:19.420Z,0.92
2018-02-27T01:55:19.144Z,0.91
2018-02-27T01:56:19.436Z,0.81
2018-02-27T01:57:19.439Z,0.91
2018-02-27T01:58:19.733Z,0.86
2018-02-27T01:59:19.457Z,0.91
2018-02-27T02:00:19.746Z,0.92
2018-02-27T02:01:19.471Z,0.83
2018-02-27T02:02:19.764Z,0.88
2018-02-27T02:03:19.200Z,0.96
2018-02-27T02:04:19.774Z,0.86
2018-02-27T02:05:19.498Z,0.94
2018-02-27T02:06:19.563Z,0.84
2018-02-27T02:07:19.517Z,0.77
2018-02-27T02:08:19.643Z,0.92
2018-02-27T02:09:19.526Z,0.81
2018-02-27T02:10:19.255Z,0.83
2018-02-27T02:11:19.825Z,0.83
2018-02-27T02:12:19.554Z,0.83
2018-02-27T02:13:19.573Z,0.87
2018-02-27T02:14:19.851Z,0.81
2018-02-27T02:15:19.855Z,0.88
2018-02-27T02:16:19.911Z,0.88
2018-02-27T02:17:19.864Z,0.86
2018-02-27T02:18:19.958Z,0.94
2018-02-27T02:19:19.882Z,0.87
2018-02-27T02:20:19.886Z,0.88
2018-02-27T02:21:19.943Z,0.86
2018-02-27T02:22:19.619Z,0.74
2018-02-27T02:23:19.348Z,0.83
2018-02-27T02:24:19.635Z,0.74
2018-02-27T02:25:19.928Z,0.73
2018-02-27T02:26:19.700Z,0.74
2018-02-27T02:27:19.936Z,0.77
2018-02-27T02:28:19.948Z,0.68
2018-02-27T02:29:19.954Z,0.7
2018-02-27T02:30:19.393Z,0.8
2018-02-27T02:31:19.692Z,0.77
2018-02-27T02:32:19.692Z,0.81
2018-02-27T02:33:19.413Z,0.76
2018-02-27T02:34:20.005Z,0.76
2018-02-27T02:35:19.712Z,0.7
2018-02-27T02:36:20.016Z,0.66
2018-02-27T02:37:19.723Z,0.66
2018-02-27T02:38:19.452Z,0.66
2018-02-27T02:39:20.026Z,0.68
2018-02-27T02:40:19.746Z,0.63
2018-02-27T02:41:20.093Z,0.63
2018-02-27T02:42:19.763Z,0.66
2018-02-27T02:43:20.069Z,0.65
2018-02-27T02:44:19.782Z,0.65
2018-02-27T02:45:20.069Z,0.65
2018-02-27T02:46:20.067Z,0.63
2018-02-27T02:47:19.799Z,0.6
2018-02-27T02:48:19.807Z,0.65
2018-02-27T02:49:19.809Z,0.65
2018-02-27T02:50:20.101Z,0.55
2018-02-27T02:51:19.541Z,0.55
2018-02-27T02:52:20.138Z,0.55
2018-02-27T02:53:19.554Z,0.59
2018-02-27T02:54:19.566Z,0.6
2018-02-27T02:55:20.142Z,0.59
2018-02-27T02:56:20.142Z,0.59
2018-02-27T02:57:20.151Z,0.58
2018-02-27T02:58:20.156Z,0.52
2018-02-27T02:59:20.167Z,0.52
2018-02-27T03:00:19.887Z,0.55
2018-02-27T03:01:19.946Z,0.6
2018-02-27T03:02:20.183Z,0.55
2018-02-27T03:03:20.193Z,0.49
2018-02-27T03:04:19.919Z,0.46
2018-02-27T03:05:20.203Z,0.55
2018-02-27T03:06:19.927Z,0.55
2018-02-27T03:07:20.215Z,0.58
2018-02-27T03:08:19.945Z,0.5
2018-02-27T03:09:19.945Z,0.55
2018-02-27T03:10:19.955Z,0.4
2018-02-27T03:11:20.252Z,0.43
2018-02-27T03:12:20.253Z,0.46
2018-02-27T03:13:19.977Z,0.43
2018-02-27T03:14:20.268Z,0.39
2018-02-27T03:15:20.270Z,0.46
2018-02-27T03:16:20.282Z,0.43
2018-02-27T03:17:20.285Z,0.46
2018-02-27T03:18:20.012Z,0.39
2018-02-27T03:19:20.303Z,0.47
2018-02-27T03:20:20.032Z,0.47
2018-02-27T03:21:20.319Z,0.44
2018-02-27T03:22:20.034Z,0.46
2018-02-27T03:23:20.049Z,0.44
2018-02-27T03:24:20.334Z,0.49
2018-02-27T03:25:19.777Z,0.46
2018-02-27T03:26:20.063Z,0.47
2018-02-27T03:27:20.356Z,0.56
2018-02-27T03:28:20.363Z,0.56
2018-02-27T03:29:20.370Z,0.56
2018-02-27T03:30:20.098Z,0.43
2018-02-27T03:31:20.109Z,0.55
2018-02-27T03:32:20.105Z,0.52
2018-02-27T03:33:20.114Z,0.41
2018-02-27T03:34:20.423Z,0.49
2018-02-27T03:35:20.414Z,0.56
2018-02-27T03:36:20.417Z,0.43
2018-02-27T03:37:20.475Z,0.44
2018-02-27T03:38:20.146Z,0.39
2018-02-27T03:39:20.438Z,0.41
2018-02-27T03:40:20.446Z,0.36
2018-02-27T03:41:20.464Z,0.47
2018-02-27T03:42:20.456Z,0.58
2018-02-27T03:43:20.188Z,0.39
2018-02-27T03:44:20.471Z,0.46
2018-02-27T03:45:20.480Z,0.56
2018-02-27T03:46:20.204Z,0.46
2018-02-27T03:47:20.254Z,0.39
2018-02-27T03:48:20.505Z,0.46
2018-02-27T03:49:20.504Z,0.4
2018-02-27T03:50:20.513Z,0.43
2018-02-27T03:51:20.236Z,0.39
2018-02-27T03:52:20.584Z,0.47
2018-02-27T03:53:20.529Z,0.43
2018-02-27T03:54:20.260Z,0.52
2018-02-27T03:55:20.543Z,0.4
2018-02-27T03:56:20.556Z,0.47
2018-02-27T03:57:20.558Z,0.4
2018-02-27T03:58:20.282Z,0.44
2018-02-27T03:59:20.009Z,0.43
2018-02-27T04:00:20.579Z,0.32
2018-02-27T04:01:20.307Z,0.4
2018-02-27T04:02:20.592Z,0.34
2018-02-27T04:03:20.315Z,0.37
2018-02-27T04:04:20.326Z,0.41
2018-02-27T04:05:20.333Z,0.32
2018-02-27T04:06:20.333Z,0.36
2018-02-27T04:07:20.108Z,0.28
2018-02-27T04:08:20.761Z,0.32
2018-02-27T04:09:20.637Z,0.37
2018-02-27T04:10:20.644Z,0.37
2018-02-27T04:11:20.658Z,0.28
2018-02-27T04:12:20.429Z,0.37
2018-02-27T04:13:20.668Z,0.29
2018-02-27T04:14:20.673Z,0.29
2018-02-27T04:15:20.680Z,0.25
2018-02-27T04:16:20.413Z,0.4
2018-02-27T04:17:20.748Z,0.36
2018-02-27T04:18:20.416Z,0.29
2018-02-27T04:19:20.424Z,0.37
2018-02-27T04:20:20.435Z,0.4
2018-02-27T04:21:20.720Z,0.32
2018-02-27T04:22:20.740Z,0.31
2018-02-27T04:23:20.473Z,0.28
2018-02-27T04:24:20.175Z,0.22
2018-02-27T04:25:20.751Z,0.29
2018-02-27T04:26:20.474Z,0.28
2018-02-27T04:27:20.476Z,0.23
2018-02-27T04:28:20.774Z,0.23
2018-02-27T04:29:20.212Z,0.21
2018-02-27T04:30:20.780Z,0.22
2018-02-27T04:31:20.790Z,0.26
2018-02-27T04:32:20.516Z,0.19
2018-02-27T04:33:20.522Z,0.28
2018-02-27T04:34:20.524Z,0.23
2018-02-27T04:35:20.810Z,0.25
2018-02-27T04:36:20.823Z,0.19
2018-02-27T04:37:20.831Z,0.28
2018-02-27T04:38:20.845Z,0.25
2018-02-27T04:39:20.843Z,0.23
2018-02-27T04:40:20.849Z,0.15
2018-02-27T04:41:20.577Z,0.21
2018-02-27T04:42:20.298Z,0.25
2018-02-27T04:43:20.597Z,0.23
2018-02-27T04:44:20.601Z,0.19
2018-02-27T04:45:20.319Z,0.23
2018-02-27T04:46:20.611Z,0.18
2018-02-27T04:47:20.619Z,0.16
2018-02-27T04:48:20.900Z,0.25
2018-02-27T04:49:20.915Z,0.18
2018-02-27T04:50:20.917Z,0.1
2018-02-27T04:51:20.649Z,0.16
2018-02-27T04:52:20.649Z,0.11
2018-02-27T04:53:20.376Z,0.11
2018-02-27T04:54:20.938Z,0.12
2018-02-27T04:55:20.946Z,0.1
2018-02-27T04:56:20.956Z,0.12
2018-02-27T04:57:20.678Z,0.1
2018-02-27T04:58:20.967Z,0.12
2018-02-27T04:59:20.692Z,0.12
2018-02-27T05:00:20.695Z,0.07
2018-02-27T05:01:20.703Z,0.15
2018-02-27T05:02:21.000Z,0.21
2018-02-27T05:03:21.003Z,0.12
2018-02-27T05:04:20.761Z,0.15
2018-02-27T05:05:20.738Z,0.08
2018-02-27T05:06:21.021Z,0.11
2018-02-27T05:07:21.026Z,0.11
2018-02-27T05:08:21.036Z,0.11
2018-02-27T05:09:20.757Z,0.12
2018-02-27T05:10:20.767Z,0.11
2018-02-27T05:11:20.778Z,0.19
2018-02-27T05:12:20.511Z,0.07
2018-02-27T05:13:20.838Z,0.15
2018-02-27T05:14:21.077Z,0.08
2018-02-27T05:15:21.085Z,0.1
2018-02-27T05:16:21.197Z,0.08
2018-02-27T05:17:21.092Z,0.07
2018-02-27T05:18:21.098Z,0.12
2018-02-27T05:19:20.826Z,0.15
2018-02-27T05:20:20.555Z,0.07
2018-02-27T05:21:21.128Z,0.12
2018-02-27T05:22:20.848Z,0.07
2018-02-27T05:23:20.902Z,0.05
2018-02-27T05:24:21.136Z,0.15
2018-02-27T05:25:21.155Z,0.07
2018-02-27T05:26:20.872Z,0.12
2018-02-27T05:27:20.877Z,0.12
2018-02-27T05:28:20.651Z,0.15
2018-02-27T05:29:21.184Z,0.05
2018-02-27T05:30:21.183Z,0.05
2018-02-27T05:31:20.905Z,0.08
2018-02-27T05:32:21.195Z,0.05
2018-02-27T05:33:20.970Z,0.1
2018-02-27T05:34:21.205Z,0.07
2018-02-27T05:35:20.929Z,0.1
2018-02-27T05:36:21.218Z,0.08
2018-02-27T05:37:21.228Z,0.08
2018-02-27T05:38:21.282Z,0.03
2018-02-27T05:39:20.959Z,0.05
2018-02-27T05:40:20.962Z,0.04
2018-02-27T05:41:20.970Z,0.03
2018-02-27T05:42:20.977Z,0.03
2018-02-27T05:43:20.980Z,0.07
2018-02-27T05:44:21.275Z,0.07
2018-02-27T05:45:21.279Z,0.05
2018-02-27T05:46:21.288Z,0.03
2018-02-27T05:47:21.289Z,0.04
2018-02-27T05:48:21.303Z,0.08
2018-02-27T05:49:21.333Z,0.07
2018-02-27T05:50:21.310Z,0.05
2018-02-27T05:51:20.748Z,0.04
2018-02-27T05:52:21.330Z,0.03
2018-02-27T05:53:21.334Z,0.03
2018-02-27T05:54:21.346Z,0.03
2018-02-27T05:55:21.343Z,0.01
2018-02-27T05:56:21.359Z,0.01
2018-02-27T05:57:21.074Z,0.03
2018-02-27T05:58:20.853Z,-0.1
2018-02-27T05:59:21.089Z,0
2018-02-27T06:00:21.378Z,0
2018-02-27T06:01:21.445Z,-0.03
2018-02-27T06:02:21.109Z,-0.02
2018-02-27T06:03:21.399Z,-0.03
2018-02-27T06:04:21.124Z,-0.03
2018-02-27T06:05:21.417Z,0.05
2018-02-27T06:06:21.138Z,0
2018-02-27T06:07:21.430Z,-0.06
2018-02-27T06:08:20.865Z,-0.03
2018-02-27T06:09:20.868Z,0.01
2018-02-27T06:10:21.164Z,0.03
2018-02-27T06:11:21.168Z,0
2018-02-27T06:12:21.459Z,0
2018-02-27T06:13:21.185Z,-0.02
2018-02-27T06:14:21.210Z,0.01
2018-02-27T06:15:21.478Z,-0.03
2018-02-27T06:16:21.204Z,0.03
2018-02-27T06:17:21.212Z,0.01
2018-02-27T06:18:21.209Z,-0.03
2018-02-27T06:19:21.504Z,0.01
2018-02-27T06:20:21.224Z,0
2018-02-27T06:21:21.236Z,0.07
2018-02-27T06:22:21.241Z,-0.02
2018-02-27T06:23:21.248Z,0
2018-02-27T06:24:20.967Z,0
2018-02-27T06:25:21.545Z,0.01
2018-02-27T06:26:21.546Z,0.03
2018-02-27T06:27:21.270Z,0
2018-02-27T06:28:21.561Z,0.05
2018-02-27T06:29:21.285Z,0
2018-02-27T06:30:21.288Z,0.08
2018-02-27T06:31:21.339Z,0.04
2018-02-27T06:32:21.585Z,0.1
2018-02-27T06:33:21.591Z,0.05
2018-02-27T06:34:21.315Z,0.07
2018-02-27T06:35:21.611Z,0.04
2018-02-27T06:36:21.343Z,0.04
2018-02-27T06:37:21.700Z,0.04
2018-02-27T06:38:21.340Z,0.04
2018-02-27T06:39:21.115Z,0.04
2018-02-27T06:40:21.072Z,0.05
2018-02-27T06:41:21.373Z,0.08
2018-02-27T06:42:21.363Z,0.05
2018-02-27T06:43:21.372Z,0.1
2018-02-27T06:44:21.666Z,0.08
2018-02-27T06:45:21.105Z,0.16
2018-02-27T06:46:21.395Z,0.07
2018-02-27T06:47:21.402Z,0.11
2018-02-27T06:48:21.408Z,0.1
2018-02-27T06:49:21.747Z,0.12
2018-02-27T06:50:21.428Z,0.16
2018-02-27T06:51:21.701Z,0.07
2018-02-27T06:52:21.146Z,0.16
2018-02-27T06:53:21.155Z,0.12
2018-02-27T06:54:21.442Z,0.16
2018-02-27T06:55:21.757Z,0.26
2018-02-27T06:56:21.739Z,0.28
2018-02-27T06:57:21.467Z,0.19
2018-02-27T06:58:21.757Z,0.19
2018-02-27T06:59:21.476Z,0.23
2018-02-27T07:00:21.241Z,0.32
2018-02-27T07:01:21.778Z,0.29
2018-02-27T07:02:21.790Z,0.36
2018-02-27T07:03:21.783Z,0.36
2018-02-27T07:04:21.791Z,0.31
2018-02-27T07:05:21.515Z,0.28
2018-02-27T07:06:21.922Z,0.32
2018-02-27T07:07:21.533Z,0.41
2018-02-27T07:08:21.821Z,0.39
2018-02-27T07:09:21.328Z,0.4
2018-02-27T07:10:21.586Z,0.43
2018-02-27T07:11:21.560Z,0.41
2018-02-27T07:12:21.558Z,0.52
2018-02-27T07:13:21.852Z,0.43
2018-02-27T07:14:21.912Z,0.4
2018-02-27T07:15:21.296Z,0.46
2018-02-27T07:16:21.589Z,0.59
2018-02-27T07:17:21.595Z,0.59
2018-02-27T07:18:21.604Z,0.59
2018-02-27T07:19:21.613Z,0.56
2018-02-27T07:20:21.332Z,0.6
2018-02-27T07:21:21.903Z,0.59
2018-02-27T07:22:21.630Z,0.6
2018-02-27T07:23:21.923Z,0.65
2018-02-27T07:24:21.920Z,0.68
2018-02-27T07:25:21.647Z,0.66
2018-02-27T07:26:21.372Z,0.7
2018-02-27T07:27:21.948Z,0.73
2018-02-27T07:28:21.952Z,0.76
2018-02-27T07:29:21.957Z,0.68
2018-02-27T07:30:21.395Z,0.76
2018-02-27T07:31:21.972Z,0.86
2018-02-27T07:32:21.690Z,0.86
2018-02-27T07:33:21.984Z,0.88
2018-02-27T07:34:22.088Z,0.92
2018-02-27T07:35:21.821Z,0.91
2018-02-27T07:36:22.002Z,0.78
2018-02-27T07:37:21.729Z,0.96
2018-02-27T07:38:21.736Z,0.91
2018-02-27T07:39:21.744Z,0.88
2018-02-27T07:40:21.744Z,0.83
2018-02-27T07:41:21.762Z,0.88
2018-02-27T07:42:21.761Z,0.91
2018-02-27T07:43:21.483Z,0.92
2018-02-27T07:44:21.539Z,0.91
2018-02-27T07:45:21.497Z,0.91
2018-02-27T07:46:21.788Z,0.87
2018-02-27T07:47:21.855Z,0.92
2018-02-27T07:48:21.521Z,0.94
2018-02-27T07:49:21.808Z,1.05
2018-02-27T07:50:22.100Z,1.12
2018-02-27T07:51:21.822Z,1.06
2018-02-27T07:52:22.115Z,1.05
2018-02-27T07:53:22.119Z,1.06
2018-02-27T07:54:22.121Z,1.12
2018-02-27T07:55:22.130Z,1.14
2018-02-27T07:56:21.858Z,1.17
2018-02-27T07:57:22.149Z,1.22
2018-02-27T07:58:22.150Z,1.23
2018-02-27T07:59:21.875Z,1.22
2018-02-27T08:00:22.170Z,1.24
2018-02-27T08:01:21.893Z,1.22
2018-02-27T08:02:21.901Z,1.24
2018-02-27T08:03:22.189Z,1.34
2018-02-27T08:04:22.200Z,1.4
2018-02-27T08:05:21.914Z,1.3
2018-02-27T08:06:21.638Z,1.42
2018-02-27T08:07:21.928Z,1.37
2018-02-27T08:08:21.655Z,1.4
2018-02-27T08:09:22.276Z,1.42
2018-02-27T08:10:21.955Z,1.52
2018-02-27T08:11:21.961Z,1.45
2018-02-27T08:12:22.249Z,1.49
2018-02-27T08:13:21.986Z,1.52
2018-02-27T08:14:21.978Z,1.56
2018-02-27T08:15:21.984Z,1.53
2018-02-27T08:16:21.711Z,1.56
2018-02-27T08:17:22.295Z,1.67
2018-02-27T08:18:22.002Z,1.7
2018-02-27T08:19:22.294Z,1.66
2018-02-27T08:20:22.307Z,1.68
2018-02-27T08:21:22.313Z,1.7
2018-02-27T08:22:22.035Z,1.73
2018-02-27T08:23:22.043Z,1.67
2018-02-27T08:24:22.048Z,1.8
2018-02-27T08:25:22.052Z,1.87
2018-02-27T08:26:22.059Z,1.77
2018-02-27T08:27:22.069Z,1.94
2018-02-27T08:28:21.790Z,1.94
2018-02-27T08:29:22.364Z,1.94
2018-02-27T08:30:22.372Z,1.99
2018-02-27T08:31:22.382Z,1.95
2018-02-27T08:32:22.107Z,2.06
2018-02-27T08:33:22.394Z,2.08
2018-02-27T08:34:21.835Z,2.1
2018-02-27T08:35:22.138Z,2.11
2018-02-27T08:36:22.418Z,2.1
2018-02-27T08:37:22.422Z,2.15
2018-02-27T08:38:22.437Z,2.17
2018-02-27T08:39:22.158Z,2.15
2018-02-27T08:40:22.168Z,2.15
2018-02-27T08:41:22.450Z,2.22
2018-02-27T08:42:22.460Z,2.18
2018-02-27T08:43:22.473Z,2.22
2018-02-27T08:44:22.539Z,2.18
2018-02-27T08:45:22.482Z,2.28
2018-02-27T08:46:22.200Z,2.31
2018-02-27T08:47:22.212Z,2.38
2018-02-27T08:48:22.507Z,2.39
2018-02-27T08:49:22.510Z,2.35
2018-02-27T08:50:22.515Z,2.5
2018-02-27T08:51:22.260Z,2.44
2018-02-27T08:52:22.250Z,2.47
2018-02-27T08:53:22.535Z,2.54
2018-02-27T08:54:22.259Z,2.57
2018-02-27T08:55:22.555Z,2.54
2018-02-27T08:56:22.564Z,2.65
2018-02-27T08:57:22.562Z,2.68
2018-02-27T08:58:22.573Z,2.68
2018-02-27T08:59:22.588Z,2.77
2018-02-27T09:00:22.589Z,2.86
2018-02-27T09:01:22.310Z,2.89
2018-02-27T09:02:22.318Z,2.82
2018-02-27T09:03:22.615Z,2.86
2018-02-27T09:04:22.331Z,2.89
2018-02-27T09:05:22.684Z,2.95
2018-02-27T09:06:22.638Z,2.97
2018-02-27T09:07:22.360Z,2.97
2018-02-27T09:08:22.081Z,3
2018-02-27T09:09:22.655Z,3.04
2018-02-27T09:10:22.391Z,3.08
2018-02-27T09:11:22.394Z,3.05
2018-02-27T09:12:22.397Z,3.08
2018-02-27T09:13:22.401Z,3.1
2018-02-27T09:14:22.128Z,3.28
2018-02-27T09:15:22.470Z,3.25
2018-02-27T09:16:22.436Z,3.23
2018-02-27T09:17:22.436Z,3.25
2018-02-27T09:18:22.720Z,3.28
2018-02-27T09:19:22.806Z,3.31
2018-02-27T09:20:22.492Z,3.34
2018-02-27T09:21:22.465Z,3.41
2018-02-27T09:22:22.189Z,3.42
2018-02-27T09:23:22.762Z,3.44
2018-02-27T09:24:22.489Z,3.45
2018-02-27T09:25:22.781Z,3.4
2018-02-27T09:26:22.218Z,3.4
2018-02-27T09:27:22.225Z,3.56
2018-02-27T09:28:22.818Z,3.42
2018-02-27T09:29:22.527Z,3.45
2018-02-27T09:30:22.869Z,3.58
2018-02-27T09:31:22.906Z,3.5
2018-02-27T09:32:22.832Z,3.47
2018-02-27T09:33:22.561Z,3.55
2018-02-27T09:34:22.570Z,3.53
2018-02-27T09:35:22.571Z,3.5
2018-02-27T09:36:22.866Z,3.66
2018-02-27T09:37:22.870Z,3.59
2018-02-27T09:38:22.967Z,3.66
2018-02-27T09:39:22.886Z,3.74
2018-02-27T09:40:22.332Z,3.63
2018-02-27T09:41:22.915Z,3.68
2018-02-27T09:42:22.910Z,3.76
2018-02-27T09:43:22.921Z,3.74
2018-02-27T09:44:22.366Z,3.81
2018-02-27T09:45:22.656Z,3.81
2018-02-27T09:46:22.673Z,3.81
2018-02-27T09:47:22.671Z,3.8
2018-02-27T09:48:22.676Z,3.86
2018-02-27T09:49:22.690Z,3.81
2018-02-27T09:50:22.694Z,3.88
2018-02-27T09:51:22.753Z,3.94
2018-02-27T09:52:22.712Z,3.99
2018-02-27T09:53:23.001Z,3.96
2018-02-27T09:54:22.727Z,4.1
2018-02-27T09:55:23.019Z,4.14
2018-02-27T09:56:22.813Z,4.23
2018-02-27T09:57:23.039Z,4.19
2018-02-27T09:58:23.042Z,4.22
2018-02-27T09:59:22.765Z,4.17
2018-02-27T10:00:23.059Z,4.22
2018-02-27T10:01:22.849Z,4.24
2018-02-27T10:02:23.095Z,4.3
2018-02-27T10:03:23.088Z,4.31
2018-02-27T10:04:22.812Z,4.35
2018-02-27T10:05:22.864Z,4.35
2018-02-27T10:06:23.175Z,4.3
2018-02-27T10:07:22.838Z,4.41
2018-02-27T10:08:23.128Z,4.44
2018-02-27T10:09:22.850Z,4.41
2018-02-27T10:10:22.576Z,4.45
2018-02-27T10:11:22.878Z,4.53
2018-02-27T10:12:23.161Z,4.45
2018-02-27T10:13:23.161Z,4.53
2018-02-27T10:14:22.617Z,4.59
2018-02-27T10:15:22.901Z,4.56
2018-02-27T10:16:23.192Z,4.59
2018-02-27T10:17:22.923Z,4.59
2018-02-27T10:18:22.929Z,4.58
2018-02-27T10:19:23.222Z,4.7
2018-02-27T10:20:23.153Z,4.67
2018-02-27T10:21:23.236Z,4.82
2018-02-27T10:22:22.967Z,4.78
2018-02-27T10:23:22.973Z,4.9
2018-02-27T10:24:23.262Z,4.9
2018-02-27T10:25:23.271Z,4.94
2018-02-27T10:26:23.006Z,4.9
2018-02-27T10:27:23.009Z,4.9
2018-02-27T10:28:23.299Z,4.96
2018-02-27T10:29:23.023Z,4.89
2018-02-27T10:30:23.030Z,4.96
2018-02-27T10:31:23.059Z,4.92
2018-02-27T10:32:23.329Z,4.97
2018-02-27T10:33:23.055Z,5.11
2018-02-27T10:34:23.358Z,5.15
2018-02-27T10:35:23.074Z,5.1
2018-02-27T10:36:23.372Z,5.18
2018-02-27T10:37:23.380Z,5.17
2018-02-27T10:38:23.385Z,5.23
2018-02-27T10:39:23.426Z,5.15
2018-02-27T10:40:23.119Z,5.21
2018-02-27T10:41:23.142Z,5.25
2018-02-27T10:42:23.418Z,5.26
2018-02-27T10:43:23.430Z,5.36
2018-02-27T10:44:23.157Z,5.33
2018-02-27T10:45:23.616Z,5.33
2018-02-27T10:46:23.210Z,5.29
2018-02-27T10:47:23.461Z,5.35
2018-02-27T10:48:22.931Z,5.39
2018-02-27T10:49:23.206Z,5.41
2018-02-27T10:50:23.492Z,5.43
2018-02-27T10:51:22.934Z,5.47
2018-02-27T10:52:23.514Z,5.46
2018-02-27T10:53:23.518Z,5.5
2018-02-27T10:54:23.255Z,5.54
2018-02-27T10:55:23.537Z,5.51
2018-02-27T10:56:23.267Z,5.53
2018-02-27T10:57:23.279Z,5.61
2018-02-27T10:58:23.281Z,5.66
2018-02-27T10:59:23.292Z,5.64
2018-02-27T11:00:23.641Z,5.72
2018-02-27T11:01:23.307Z,5.73
2018-02-27T11:02:23.329Z,5.76
2018-02-27T11:03:23.620Z,5.73
2018-02-27T11:04:23.619Z,5.82
2018-02-27T11:05:23.348Z,5.76
2018-02-27T11:06:23.642Z,5.82
2018-02-27T11:07:23.381Z,5.8
2018-02-27T11:08:23.374Z,5.89
2018-02-27T11:09:23.384Z,5.87
2018-02-27T11:10:23.401Z,5.9
2018-02-27T11:11:23.688Z,5.86
2018-02-27T11:12:23.413Z,5.94
2018-02-27T11:13:23.424Z,5.94
2018-02-27T11:14:23.434Z,5.97
2018-02-27T11:15:23.158Z,6.01
2018-02-27T11:16:23.731Z,5.94
2018-02-27T11:17:23.752Z,5.87
2018-02-27T11:18:23.757Z,5.97
2018-02-27T11:19:23.762Z,5.99
2018-02-27T11:20:23.487Z,5.97
2018-02-27T11:21:23.503Z,6.04
2018-02-27T11:22:23.794Z,5.99
2018-02-27T11:23:23.517Z,6.09
2018-02-27T11:24:23.526Z,6.08
2018-02-27T11:25:23.548Z,5.98
2018-02-27T11:26:23.545Z,6.04
2018-02-27T11:27:23.837Z,6.08
2018-02-27T11:28:23.574Z,6.04
2018-02-27T11:29:23.573Z,6.2
2018-02-27T11:30:23.870Z,6.12
2018-02-27T11:31:23.875Z,6.14
2018-02-27T11:32:23.608Z,6.19
2018-02-27T11:33:23.611Z,6.22
2018-02-27T11:34:23.903Z,6.31
2018-02-27T11:35:23.632Z,6.36
2018-02-27T11:36:23.698Z,6.36
2018-02-27T11:37:23.702Z,6.33
2018-02-27T11:38:23.662Z,6.45
2018-02-27T11:39:23.955Z,6.42
2018-02-27T11:40:23.962Z,6.49
2018-02-27T11:41:24.058Z,6.51
2018-02-27T11:42:24.000Z,6.48
2018-02-27T11:43:23.994Z,6.51
2018-02-27T11:44:24.010Z,6.48
2018-02-27T11:45:24.023Z,6.52
2018-02-27T11:46:24.026Z,6.51
2018-02-27T11:47:23.516Z,6.56
2018-02-27T11:48:23.759Z,6.59
2018-02-27T11:49:24.066Z,6.54
2018-02-27T11:50:23.500Z,6.49
2018-02-27T11:51:23.507Z,6.57
2018-02-27T11:52:24.134Z,6.54
2018-02-27T11:53:23.810Z,6.56
2018-02-27T11:54:23.819Z,6.51
2018-02-27T11:55:23.836Z,6.56
2018-02-27T11:56:23.858Z,6.57
2018-02-27T11:57:23.851Z,6.6
2018-02-27T11:58:23.864Z,6.62
2018-02-27T11:59:24.153Z,6.54
2018-02-27T12:00:23.601Z,6.57
2018-02-27T12:01:24.177Z,6.63
2018-02-27T12:02:24.274Z,6.59
2018-02-27T12:03:24.197Z,6.57
2018-02-27T12:04:24.204Z,6.62
2018-02-27T12:05:24.216Z,6.74
2018-02-27T12:06:23.945Z,6.66
2018-02-27T12:07:23.965Z,6.67
2018-02-27T12:08:24.243Z,6.66
2018-02-27T12:09:23.975Z,6.62
2018-02-27T12:10:23.985Z,6.62
2018-02-27T12:11:24.005Z,6.74
2018-02-27T12:12:24.007Z,6.69
2018-02-27T12:13:24.016Z,6.64
2018-02-27T12:14:24.303Z,6.69
2018-02-27T12:15:24.313Z,6.67
2018-02-27T12:16:24.323Z,6.6
2018-02-27T12:17:24.058Z,6.63
2018-02-27T12:18:23.784Z,6.67
2018-02-27T12:19:24.361Z,6.63
2018-02-27T12:20:24.091Z,6.69
2018-02-27T12:21:24.112Z,6.75
2018-02-27T12:22:23.825Z,6.74
2018-02-27T12:23:23.834Z,6.77
2018-02-27T12:24:24.414Z,6.63
2018-02-27T12:25:24.425Z,6.69
2018-02-27T12:26:24.438Z,6.63
2018-02-27T12:27:24.156Z,6.72
2018-02-27T12:28:24.458Z,6.66
2018-02-27T12:29:24.524Z,6.66
2018-02-27T12:30:24.496Z,6.66
2018-02-27T12:31:24.203Z,6.6
2018-02-27T12:32:24.502Z,6.67
2018-02-27T12:33:24.509Z,6.6
2018-02-27T12:34:24.529Z,6.66
2018-02-27T12:35:24.525Z,6.6
2018-02-27T12:36:24.534Z,6.6
2018-02-27T12:37:24.551Z,6.6
2018-02-27T12:38:24.283Z,6.57
2018-02-27T12:39:24.585Z,6.56
2018-02-27T12:40:24.577Z,6.56
2018-02-27T12:41:24.585Z,6.54
2018-02-27T12:42:24.599Z,6.69
2018-02-27T12:43:24.606Z,6.59
2018-02-27T12:44:24.340Z,6.45
2018-02-27T12:45:24.349Z,6.56
2018-02-27T12:46:24.357Z,6.52
2018-02-27T12:47:24.654Z,6.57
2018-02-27T12:48:24.716Z,6.54
2018-02-27T12:49:24.672Z,6.54
2018-02-27T12:50:24.679Z,6.44
2018-02-27T12:51:24.412Z,6.44
2018-02-27T12:52:24.706Z,6.45
2018-02-27T12:53:24.146Z,6.48
2018-02-27T12:54:24.724Z,6.49
2018-02-27T12:55:24.740Z,6.51
2018-02-27T12:56:24.460Z,6.46
2018-02-27T12:57:24.187Z,6.44
2018-02-27T12:58:24.574Z,6.45
2018-02-27T12:59:24.494Z,6.42
2018-02-27T13:00:24.505Z,6.33
2018-02-27T13:01:24.800Z,6.46
2018-02-27T13:02:24.808Z,6.46
2018-02-27T13:03:24.536Z,6.45
2018-02-27T13:04:24.266Z,6.44
2018-02-27T13:05:24.838Z,6.48
2018-02-27T13:06:24.290Z,6.49
2018-02-27T13:07:24.871Z,6.48
2018-02-27T13:08:24.644Z,6.49
2018-02-27T13:09:24.892Z,6.48
2018-02-27T13:10:24.891Z,6.49
2018-02-27T13:11:24.628Z,6.31
2018-02-27T13:12:24.915Z,6.38
2018-02-27T13:13:24.977Z,6.36
2018-02-27T13:14:24.938Z,6.3
2018-02-27T13:15:24.944Z,6.28
2018-02-27T13:16:24.953Z,6.31
2018-02-27T13:17:24.680Z,6.22
2018-02-27T13:18:24.986Z,6.26
2018-02-27T13:19:25.045Z,6.14
2018-02-27T13:20:24.719Z,6.24
2018-02-27T13:21:25.014Z,6.19